Home > Products > Valid Products > TAF

000
FTUS45 KBYZ 241721
TAFMLS
TAF
KMLS 241721Z 2418/2518 29016KT P6SM SCT090
     FM250600 26005KT P6SM FEW120=



000
FTUS45 KBYZ 241721
TAFSHR
TAF
KSHR 241721Z 2418/2518 VRB05KT P6SM FEW090
     FM250200 VRB04KT P6SM SKC
     FM251400 12005KT P6SM SCT120=



000
FTUS45 KBYZ 241721
TAFBIL
TAF
KBIL 241721Z 2418/2518 25015G21KT P6SM BKN090
     FM250300 25008KT P6SM SCT100
     FM251500 15008KT P6SM SCT100=



000
FTUS45 KBYZ 241721
TAFLVM
TAF
KLVM 241721Z 2418/2518 22022G30KT P6SM VCSH SCT060 OVC080
     FM250300 22016KT P6SM VCSH SCT090
     FM251200 22009KT P6SM VCSH BKN070
     FM251500 12007KT P6SM VCSH BKN050=



000
FTUS45 KBYZ 241137
TAFMLS
TAF
KMLS 241137Z 2412/2512 26010KT P6SM SCT100
     FM241600 28014G21KT P6SM SCT090 BKN150
     FM250000 30009KT P6SM BKN070=



000
FTUS45 KBYZ 241137
TAFSHR
TAF
KSHR 241137Z 2412/2512 29009KT P6SM SCT100=



000
FTUS45 KBYZ 241137
TAFLVM
TAF
KLVM 241137Z 2412/2512 23025G36KT P6SM SCT070 BKN100
     FM241800 24024G35KT P6SM VCSH BKN060
     FM250200 25016KT P6SM VCSH BKN060
     FM250700 26009KT P6SM BKN100=



000
FTUS45 KBYZ 241137
TAFBIL
TAF
KBIL 241137Z 2412/2512 23011KT P6SM FEW090 BKN120
     FM242000 27014G21KT P6SM VCSH BKN070
     FM250300 24009KT P6SM BKN100=



000
FTUS45 KBYZ 240527
TAFLVM
TAF
KLVM 240527Z 2406/2506 25015G23KT P6SM SCT070 BKN100
     FM241800 24022G34KT P6SM VCSH BKN060
     FM250200 25016KT P6SM VCSH BKN060=



000
FTUS45 KBYZ 240527
TAFBIL
TAF
KBIL 240527Z 2406/2506 25015KT P6SM FEW090 BKN130
     FM242000 26014G20KT P6SM VCSH BKN080
     FM250200 27013KT P6SM VCSH BKN070=



000
FTUS45 KBYZ 240527
TAFSHR
TAF
KSHR 240527Z 2406/2506 29009KT P6SM SCT120=



000
FTUS45 KBYZ 240527
TAFMLS
TAF
KMLS 240527Z 2406/2506 26010KT P6SM SCT100 WS017/30031KT
     FM241600 28014G21KT P6SM SCT120
     FM250200 30009KT P6SM BKN090=



000
FTUS45 KBYZ 232334
TAFLVM
TAF
KLVM 232334Z 2400/2424 25027G37KT P6SM VCSH SCT060 BKN090
     FM240230 25015G25KT P6SM SCT060 SCT090
     FM241800 24023G33KT P6SM VCSH BKN060 BKN090=



000
FTUS45 KBYZ 232334
TAFBIL
TAF
KBIL 232334Z 2400/2424 28024G34KT P6SM VCSH SCT080
     FM240230 26015KT P6SM SCT080
     FM241900 28016KT P6SM VCSH BKN070=



000
FTUS45 KBYZ 232334
TAFMLS
TAF
KMLS 232334Z 2400/2424 28015G25KT P6SM VCSH SCT070 SCT100
     FM240300 25010KT P6SM SCT070 SCT100 WS015/31030KT
     FM241600 29016KT P6SM SCT080=



000
FTUS45 KBYZ 232334
TAFSHR
TAF
KSHR 232334Z 2400/2424 31011KT P6SM SCT070 BKN100
      TEMPO 2400/2403 31016G26KT
     FM240300 VRB06KT P6SM SCT100
     FM241700 31015KT P6SM SCT070 BKN100=



000
FTUS45 KBYZ 231915 AAA
TAFMLS
TAF AMD
KMLS 231915Z 2319/2418 28021G30KT P6SM VCSH BKN035 OVC045
     FM232200 30018G27KT P6SM BKN080
     FM240400 26017KT P6SM SCT080 BKN100
     FM241300 29012KT P6SM FEW060=



000
FTUS45 KBYZ 231740
TAFLVM
TAF
KLVM 231740Z 2318/2418 26030G36KT P6SM VCSH BKN060
     FM240200 26015G25KT P6SM BKN060
     FM240700 23015G25KT P6SM SCT060 BKN200=



000
FTUS45 KBYZ 231740
TAFBIL
TAF
KBIL 231740Z 2318/2418 27022G27KT P6SM VCSH FEW060 BKN090 BKN200
     FM240200 26015KT P6SM BKN090
     FM241400 29016KT P6SM BKN070=



000
FTUS45 KBYZ 231740
TAFSHR
TAF
KSHR 231740Z 2318/2418 32026G35KT P6SM VCSH BKN050
     FM232000 29018G25KT P6SM BKN080
     FM240200 VRB04KT P6SM FEW100=



000
FTUS45 KBYZ 231740
TAFMLS
TAF
KMLS 231740Z 2318/2418 31018G27KT P6SM VCSH BKN035 OVC040
     FM232200 30018G27KT P6SM BKN080
     FM240400 26017KT P6SM SCT080 BKN100
     FM241300 29012KT P6SM FEW060=



000
FTUS45 KBYZ 231517 AAB
TAFMLS
TAF AMD
KMLS 231517Z 2315/2412 31023G31KT P6SM VCSH BKN024 OVC060
     FM232200 33025KT P6SM BKN080
     FM240100 27018G28KT P6SM BKN060=



000
FTUS45 KBYZ 231504 AAB
TAFSHR
TAF AMD
KSHR 231504Z 2315/2412 32019G28KT P6SM VCSH BKN026 OVC045
     FM240100 29015KT P6SM SCT050 BKN100=



000
FTUS45 KBYZ 231354 AAA
TAFLVM
TAF AMD
KLVM 231354Z 2314/2412 24026G31KT P6SM VCSH OVC045
     FM231500 26031G38KT P6SM VCSH SCT050 BKN070
     FM240300 25027KT P6SM SCT080 BKN120=



000
FTUS45 KBYZ 231353 AAA
TAFSHR
TAF AMD
KSHR 231353Z 2314/2412 VRB05G15KT P6SM VCSH BKN120
     FM231500 31026G36KT P6SM VCSH BKN080
     FM240100 29015KT P6SM SCT050 BKN100=



000
FTUS45 KBYZ 231351 AAA
TAFMLS
TAF AMD
KMLS 231351Z 2314/2412 30016G30KT P6SM VCSH OVC022
     FM231500 30028G38KT P6SM VCSH SCT022 BKN050 BKN080
     FM232200 33025KT P6SM BKN080
     FM240100 27018G28KT P6SM BKN060=



000
FTUS45 KBYZ 231120
TAFMLS
TAF
KMLS 231120Z 2312/2412 29011KT P6SM BKN120
     FM231400 30028G38KT P6SM VCSH BKN050 BKN080
     FM232200 33025KT P6SM BKN080
     FM240100 27018G28KT P6SM BKN060=



000
FTUS45 KBYZ 231120
TAFLVM
TAF
KLVM 231120Z 2312/2412 26017G25KT 2SM -SN BR BKN015 OVC020
     FM231500 26031G38KT P6SM VCSH SCT050 BKN070
     FM240300 25027KT P6SM SCT080 BKN120=



000
FTUS45 KBYZ 231120
TAFBIL
TAF
KBIL 231120Z 2312/2412 31011KT P6SM BKN080 OVC220
     FM231400 28025G35KT P6SM VCSH BKN060
     FM232000 29030G38KT P6SM SCT100
     FM240300 29019KT P6SM BKN070=



000
FTUS45 KBYZ 231120
TAFSHR
TAF
KSHR 231120Z 2312/2412 31030G37KT P6SM VCSH BKN060
     FM231500 31026G36KT P6SM BKN080
     FM240100 29015KT P6SM SCT050 BKN100=



000
FTUS45 KBYZ 230952 AAA
TAFLVM
TAF AMD
KLVM 230952Z 2310/2406 24017G26KT P6SM -SN BKN025 OVC030
     FM231600 26031G44KT P6SM SCT050 BKN070
     FM240300 25027KT P6SM SCT080 BKN120=



000
FTUS45 KBYZ 230534
TAFMLS
TAF
KMLS 230534Z 2306/2406 11008KT P6SM SCT120
     FM231000 30020G30KT P6SM VCSH BKN050 BKN080
     FM231500 30028G38KT P6SM VCSH BKN050 BKN080
     FM240100 27018G28KT P6SM BKN060=



000
FTUS45 KBYZ 230534
TAFSHR
TAF
KSHR 230534Z 2306/2406 23011G16KT P6SM VCSH SKC
     FM230900 31022G32KT P6SM VCSH BKN060 BKN090
     FM240100 29015KT P6SM SCT050 BKN100=



000
FTUS45 KBYZ 230534
TAFBIL
TAF
KBIL 230534Z 2306/2406 30022G30KT P6SM VCSH BKN070 WS020/15030KT
     FM230800 30026G36KT P6SM VCSH BKN040 BKN090
     FM231300 28030G38KT P6SM VCSH BKN060
     FM240300 29019KT P6SM BKN070=



000
FTUS45 KBYZ 230534
TAFLVM
TAF
KLVM 230534Z 2306/2406 25020G27KT P6SM -SHRA BKN035
     FM231600 26031G44KT P6SM SCT050 BKN070
     FM240300 25027KT P6SM SCT080 BKN120=



000
FTUS45 KBYZ 230352 CCA
TAFLVM
TAF COR
KLVM 230352Z 2304/2324 25025G35KT P6SM VCSH SCT040 BKN060
      TEMPO 2304/2305 5SM -SHRA SCT020 OVC035
     FM231700 26031G44KT P6SM SCT050 BKN070=



000
FTUS45 KBYZ 230351 AAB
TAFLVM
TAF AMD
KLVM 230351Z 2304/2324 24025G35KT P6SM VCSH SCT040 BKN060
      TEMPO 2304/2305 5SM -SHRA SCT020 OVC035
     FM231700 26031G44KT P6SM SCT050 BKN070=



000
FTUS45 KBYZ 230336 AAA
TAFBIL
TAF AMD
KBIL 230336Z 2304/2324 15011KT P6SM VCSH SCT070 BKN100
     FM230500 28017G27KT P6SM VCSH BKN060 BKN090
     FM230800 30023G33KT P6SM VCSH BKN060 BKN090=



000
FTUS45 KBYZ 230155 AAA
TAFLVM
TAF AMD
KLVM 230155Z 2302/2324 23016KT P6SM VCSH SCT040 BKN070
      TEMPO 2302/2303 VRB25G35KT 5SM -TSRA SCT035 BKN060CB
     FM230300 26023G32KT P6SM VCSH SCT040 BKN060
     FM231700 26030G42KT P6SM SCT050 BKN070=



000
FTUS45 KBYZ 222338
TAFLVM
TAF
KLVM 222338Z 2300/2324 23016KT P6SM VCSH SCT040 BKN070
      TEMPO 2300/2303 VRB35G50KT 4SM -TSRA SCT035 BKN060CB
     FM230300 26023G32KT P6SM VCSH SCT040 BKN060
     FM231700 26030G42KT P6SM SCT050 BKN070=



000
FTUS45 KBYZ 222338
TAFSHR
TAF
KSHR 222338Z 2300/2324 14010KT P6SM VCSH SCT070 BKN100
     FM230500 23013KT P6SM VCSH BKN060 BKN090
     FM230900 31022G32KT P6SM VCSH BKN060 BKN090=



000
FTUS45 KBYZ 222338
TAFMLS
TAF
KMLS 222338Z 2300/2324 10016KT P6SM VCSH SCT060 BKN100
     FM231000 30020G30KT P6SM VCSH BKN050 BKN080
     FM231500 30025G35KT P6SM VCSH BKN050 BKN080=



000
FTUS45 KBYZ 222338
TAFBIL
TAF
KBIL 222338Z 2300/2324 15015KT P6SM VCSH FEW060 BKN080
     FM230700 29022G33KT P6SM VCSH BKN050 BKN080=



000
FTUS45 KBYZ 222031 AAA
TAFLVM
TAF AMD
KLVM 222031Z 2221/2318 08006KT P6SM FEW080
      TEMPO 2221/2301 VRB40G50KT 5SM -TSRA BKN060CB
     FM230100 23023G33KT P6SM VCSH BKN060
     FM230900 25027G37KT P6SM BKN080=



000
FTUS45 KBYZ 221736
TAFSHR
TAF
KSHR 221736Z 2218/2318 02007KT P6SM SCT100
     FM222100 16010KT P6SM VCSH SCT090 BKN100
     FM230600 20015KT P6SM BKN080
     FM230700 30025G35KT P6SM VCSH BKN060=



000
FTUS45 KBYZ 221736
TAFBIL
TAF
KBIL 221736Z 2218/2318 12007KT P6SM BKN110 OVC200
     FM222100 13010KT P6SM BKN100
     FM230000 15013KT P6SM VCSH FEW060 BKN080
     FM230400 20019KT P6SM VCSH BKN060
     FM230600 29025G35KT P6SM VCSH BKN050
     FM230900 31022G37KT P6SM BKN060=



000
FTUS45 KBYZ 221736
TAFLVM
TAF
KLVM 221736Z 2218/2318 10005KT P6SM SCT100
     FM222200 19019G28KT P6SM VCSH BKN080
     FM230000 23023G33KT P6SM VCSH BKN060
     FM230900 25027G37KT P6SM BKN080=



000
FTUS45 KBYZ 221736
TAFMLS
TAF
KMLS 221736Z 2218/2318 14012KT P6SM SCT150
     FM230000 18015KT P6SM BKN100
     FM230600 20015KT P6SM VCSH BKN080
     FM230900 31020G30KT P6SM VCSH BKN060
     FM231200 30025G35KT P6SM VCSH BKN060=



000
FTUS45 KBYZ 221122
TAFLVM
TAF
KLVM 221122Z 2212/2312 22007KT P6SM SCT150
     FM222000 19019G28KT P6SM BKN120
     FM230000 23026G36KT P6SM VCSH BKN070
     FM230400 26028G38KT P6SM VCSH BKN040=



000
FTUS45 KBYZ 221122
TAFMLS
TAF
KMLS 221122Z 2212/2312 06004KT P6SM SKC
     FM221500 12015KT P6SM SCT200
     FM230900 31020G30KT P6SM VCSH BKN060=



000
FTUS45 KBYZ 221122
TAFBIL
TAF
KBIL 221122Z 2212/2312 26005KT P6SM BKN120 OVC180
     FM222000 15013KT P6SM FEW080 BKN150
     FM230000 13019KT P6SM BKN080
     FM230400 29025G35KT P6SM VCSH BKN050=



000
FTUS45 KBYZ 221122
TAFSHR
TAF
KSHR 221122Z 2212/2312 00000KT P6SM BKN120
     FM222100 16014KT P6SM SCT090 BKN150
     FM230100 24027G37KT P6SM BKN120
     FM230500 29025G35KT P6SM VCSH BKN050=



000
FTUS45 KBYZ 220530
TAFSHR
TAF
KSHR 220530Z 2206/2306 12003KT P6SM SKC
     FM222100 16014KT P6SM SCT090 BKN150=



000
FTUS45 KBYZ 220530
TAFLVM
TAF
KLVM 220530Z 2206/2306 12011KT P6SM FEW110
     FM221000 23010KT P6SM BKN150
     FM222000 19019G28KT P6SM BKN120
     FM230000 23026G36KT P6SM VCSH BKN070=



000
FTUS45 KBYZ 220530
TAFBIL
TAF
KBIL 220530Z 2206/2306 10012KT P6SM BKN220
     FM221000 23008KT P6SM BKN200
     FM222100 15013KT P6SM FEW080 BKN150
     FM230000 13019KT P6SM BKN080
     FM230300 29025G35KT P6SM VCSH BKN050=



000
FTUS45 KBYZ 220530
TAFMLS
TAF
KMLS 220530Z 2206/2306 10003KT P6SM SKC
     FM221300 12015KT P6SM SCT200=



000
FTUS45 KBYZ 212329
TAFMLS
TAF
KMLS 212329Z 2200/2224 VRB06KT P6SM SKC
     FM220230 11011KT P6SM SCT200=



000
FTUS45 KBYZ 212329
TAFLVM
TAF
KLVM 212329Z 2200/2224 09015KT P6SM BKN200
     FM221000 23010KT P6SM BKN150
     FM222100 19019G28KT P6SM VCTS SCT070CB BKN120=



000
FTUS45 KBYZ 212329
TAFBIL
TAF
KBIL 212329Z 2200/2224 10007KT P6SM SCT250
     FM221000 23008KT P6SM BKN200
     FM222100 15013KT P6SM FEW080 BKN150=



000
FTUS45 KBYZ 212329
TAFSHR
TAF
KSHR 212329Z 2200/2224 VRB06KT P6SM SCT200
     FM222100 16014KT P6SM SCT090 BKN150=



000
FTUS45 KBYZ 212206 AAA
TAFLVM
TAF AMD
KLVM 212206Z 2122/2218 09011KT P6SM SCT150
     FM221000 26010KT P6SM SCT100 BKN200=



    US Dept of Commerce
    National Oceanic and Atmospheric Administration
    National Weather Service
    1325 East West Highway
    Silver Spring, MD 20910
    Page Author: NWS Internet Services Team
Disclaimer
Information Quality
Credits
Glossary
Privacy Policy
Freedom of Information Act (FOIA)
About Us
Career Opportunities